Time;durP1;ratioP1;P1;durP2;ratioP2;P2;SDS_P1;SDS_P2;PMS_P1;PMS_P2;Temp;Humidity;BMP_temperature;BMP_pressure;BME280_temperature;BME280_humidity;BME280_pressure;Samples;Min_cycle;Max_cycle;Signal;HPM_P1;HPM_P2
2020/12/12 00:00:58;;;;;;;3.28;2.95;;;;;;;7.78;83.13;97874.34;4865836;29;20045;-75
2020/12/12 00:03:25;;;;;;;4.18;3.90;;;;;;;7.81;83.09;97884.59;4871433;29;20162;-75
2020/12/12 00:05:50;;;;;;;11.38;5.28;;;;;;;7.76;82.38;97876.53;4876073;29;20084;-74
2020/12/12 00:08:24;;;;;;;6.57;4.47;;;;;;;7.86;82.86;97892.63;4861587;29;20040;-75
2020/12/12 00:10:50;;;;;;;14.43;5.22;;;;;;;7.88;82.60;97899.66;4878958;29;20021;-73
2020/12/12 00:13:21;;;;;;;9.38;5.30;;;;;;;7.90;83.26;97908.31;4873310;29;20033;-71
2020/12/12 00:15:55;;;;;;;8.52;6.00;;;;;;;7.86;82.70;97903.50;4887639;29;20025;-73
2020/12/12 00:18:28;;;;;;;18.67;6.45;;;;;;;7.86;83.06;97899.97;4865045;29;20052;-74
2020/12/12 00:20:54;;;;;;;15.40;6.95;;;;;;;7.97;83.89;97919.56;4873514;29;20036;-74
2020/12/12 00:23:26;;;;;;;10.43;6.00;;;;;;;7.85;83.34;97896.44;4889251;29;20044;-74
2020/12/12 00:25:51;;;;;;;11.98;6.43;;;;;;;7.90;82.76;97902.88;4884428;29;20055;-73
2020/12/12 00:28:17;;;;;;;15.02;6.85;;;;;;;7.94;83.78;97920.19;4871923;29;20460;-73
2020/12/12 00:30:45;;;;;;;15.27;7.10;;;;;;;7.96;83.77;97931.59;4883159;29;20048;-73
2020/12/12 00:33:14;;;;;;;17.30;7.32;;;;;;;7.97;83.73;97930.47;4871213;29;20511;-73
2020/12/12 00:35:44;;;;;;;11.13;5.82;;;;;;;7.97;83.58;97919.56;4885376;29;20029;-72
2020/12/12 00:38:09;;;;;;;9.32;6.00;;;;;;;7.93;83.67;97922.13;4863369;29;20388;-72
2020/12/12 00:40:47;;;;;;;;;;;;;;;;;;;;;
2020/12/12 00:43:16;;;;;;;14.48;7.60;;;;;;;8.00;83.45;97929.84;4897869;29;20034;-72
2020/12/12 00:45:52;;;;;;;10.90;6.53;;;;;;;8.04;84.02;97941.72;4898641;29;20057;-74
2020/12/12 00:48:18;;;;;;;15.20;7.38;;;;;;;8.06;83.92;97939.50;4880990;29;20472;-74
2020/12/12 00:50:45;;;;;;;8.32;7.00;;;;;;;7.98;82.99;97916.53;4881023;29;20032;-73
2020/12/12 00:53:11;;;;;;;17.65;6.88;;;;;;;8.07;83.29;97941.09;4900564;29;20029;-75
2020/12/12 00:55:43;;;;;;;15.45;9.02;;;;;;;8.06;82.96;97939.50;4872630;29;20083;-75
2020/12/12 00:58:17;;;;;;;16.23;8.00;;;;;;;8.11;83.33;97947.53;4890574;29;20039;-74
2020/12/12 01:00:45;;;;;;;12.35;9.10;;;;;;;8.08;82.68;97941.91;4877718;29;20467;-75
2020/12/12 01:03:13;;;;;;;13.57;7.20;;;;;;;8.00;82.43;97935.28;4889135;29;20033;-74
2020/12/12 01:06:06;;;;;;;23.80;8.18;;;;;;;8.06;82.93;97950.38;4881631;29;20026;-73
2020/12/12 01:08:34;;;;;;;14.05;7.20;;;;;;;8.06;82.51;97955.00;4881250;29;20033;-75
2020/12/12 01:10:59;;;;;;;9.90;6.50;;;;;;;8.02;83.53;97954.84;4881064;29;20500;-74
2020/12/12 01:13:27;;;;;;;11.23;7.15;;;;;;;8.03;83.02;97961.88;4894146;29;20035;-74
2020/12/12 01:15:53;;;;;;;12.02;7.97;;;;;;;7.98;82.79;97959.28;4890731;29;20457;-73
2020/12/12 01:18:18;;;;;;;12.30;6.90;;;;;;;8.05;82.63;97981.44;4888663;29;20037;-74
2020/12/12 01:20:44;;;;;;;13.68;7.20;;;;;;;7.90;82.56;97965.47;4886465;29;20033;-75
2020/12/12 01:23:12;;;;;;;14.25;7.03;;;;;;;7.97;83.58;97984.88;4871016;29;20084;-73
2020/12/12 01:25:40;;;;;;;8.45;5.60;;;;;;;7.88;83.04;97986.75;4866774;29;20491;-74
2020/12/12 01:28:09;;;;;;;7.40;5.78;;;;;;;7.96;82.96;97994.97;4891013;29;20033;-75
2020/12/12 01:30:35;;;;;;;15.27;5.95;;;;;;;7.93;82.95;97994.78;4884539;29;20081;-72
2020/12/12 01:33:03;;;;;;;7.95;5.03;;;;;;;7.90;82.73;97998.13;4869101;29;20101;-72
2020/12/12 01:35:28;;;;;;;6.72;4.57;;;;;;;7.94;82.61;98008.06;4896532;29;20128;-73
2020/12/12 01:38:14;;;;;;;5.57;3.60;;;;;;;7.86;83.38;98004.16;4869530;29;20463;-74
2020/12/12 01:40:46;;;;;;;10.70;5.35;;;;;;;7.82;82.27;97995.00;4881714;29;20029;-74
2020/12/12 01:43:11;;;;;;;5.32;4.43;;;;;;;7.83;82.93;98004.78;4904866;29;20395;-74
2020/12/12 01:45:38;;;;;;;12.60;6.07;;;;;;;7.86;83.00;98023.22;4884371;29;20021;-73
2020/12/12 01:48:07;;;;;;;8.98;5.53;;;;;;;7.86;82.31;98022.44;4893262;29;20036;-72
2020/12/12 01:50:32;;;;;;;8.43;5.93;;;;;;;7.86;82.42;98027.88;4882541;29;20536;-74
2020/12/12 01:52:58;;;;;;;11.45;5.70;;;;;;;7.84;83.57;98033.63;4888143;29;20036;-73
2020/12/12 01:55:26;;;;;;;6.15;4.78;;;;;;;7.88;82.93;98044.69;4890914;29;20033;-74
2020/12/12 01:57:52;;;;;;;6.78;3.30;;;;;;;7.87;82.92;98029.47;4895263;29;20032;-75
2020/12/12 02:00:19;;;;;;;6.57;2.78;;;;;;;7.93;83.40;98030.97;4884018;29;20084;-77
2020/12/12 02:02:52;;;;;;;5.50;2.95;;;;;;;8.03;82.68;98032.63;4873901;29;20033;-74
2020/12/12 02:05:45;;;;;;;6.70;1.98;;;;;;;8.08;83.01;98029.00;4880116;29;20036;-75
2020/12/12 02:08:15;;;;;;;13.88;2.45;;;;;;;8.24;82.10;98053.97;4891057;29;20095;-73
2020/12/12 02:10:42;;;;;;;6.38;2.03;;;;;;;8.24;82.36;98037.63;4881741;29;20108;-75
2020/12/12 02:13:10;;;;;;;7.53;3.72;;;;;;;8.25;82.49;98044.66;4882126;29;20036;-72
2020/12/12 02:15:36;;;;;;;6.40;2.42;;;;;;;8.28;82.70;98049.50;4894675;29;20033;-73
2020/12/12 02:18:04;;;;;;;5.65;2.38;;;;;;;8.34;81.84;98053.72;4880607;29;20435;-73
2020/12/12 02:20:30;;;;;;;3.15;1.58;;;;;;;8.40;81.48;98068.81;4890543;29;20033;-73
2020/12/12 02:22:59;;;;;;;2.85;1.65;;;;;;;8.38;82.47;98055.50;4874638;29;20037;-73
2020/12/12 02:25:25;;;;;;;7.60;2.50;;;;;;;8.42;82.02;98058.41;4887333;29;20032;-73
2020/12/12 02:27:57;;;;;;;5.03;2.17;;;;;;;8.43;81.73;98057.31;4897630;29;20028;-72
2020/12/12 02:30:23;;;;;;;3.88;2.25;;;;;;;8.52;81.78;98077.25;4894204;29;20029;-73
2020/12/12 02:32:49;;;;;;;5.40;2.00;;;;;;;8.48;81.11;98075.47;4876388;29;20097;-72
2020/12/12 02:35:15;;;;;;;3.55;1.98;;;;;;;8.51;80.83;98067.50;4875799;29;20029;-72
2020/12/12 02:37:40;;;;;;;1.63;1.50;;;;;;;8.55;80.83;98071.19;4875980;29;20036;-70
2020/12/12 02:40:06;;;;;;;5.50;1.67;;;;;;;8.64;80.74;98092.25;4891192;29;20036;-73
2020/12/12 02:42:32;;;;;;;2.88;1.52;;;;;;;8.63;81.14;98087.91;4890386;29;20029;-73
2020/12/12 02:45:04;;;;;;;3.13;1.65;;;;;;;8.56;80.91;98078.25;4889392;29;20080;-73
2020/12/12 02:47:34;;;;;;;7.15;3.17;;;;;;;8.62;79.84;98095.28;4868099;29;20029;-75
2020/12/12 02:50:10;;;;;;;3.90;3.42;;;;;;;8.68;79.71;98106.84;4892829;29;20025;-72
2020/12/12 02:52:37;;;;;;;6.50;4.15;;;;;;;8.55;80.04;98109.31;4890877;29;20024;-73
2020/12/12 02:55:04;;;;;;;4.93;4.50;;;;;;;8.53;80.38;98117.00;4889378;29;20357;-74
2020/12/12 02:57:29;;;;;;;4.75;3.60;;;;;;;8.45;80.36;98106.03;4861691;29;20052;-75
2020/12/12 02:59:57;;;;;;;12.45;4.32;;;;;;;8.46;80.28;98105.72;4867277;29;20356;-77
2020/12/12 03:02:30;;;;;;;13.57;5.30;;;;;;;8.46;80.02;98119.34;4870710;29;20180;-75
2020/12/12 03:04:55;;;;;;;5.57;4.90;;;;;;;8.38;80.44;98114.59;4867984;29;20047;-76
2020/12/12 03:07:21;;;;;;;9.38;4.35;;;;;;;8.34;80.50;98108.97;4872925;29;20539;-76
2020/12/12 03:10:00;;;;;;;5.28;4.82;;;;;;;8.43;81.32;98130.84;4867638;29;20029;-77
2020/12/12 03:12:25;;;;;;;9.70;5.70;;;;;;;8.41;81.48;98126.81;4872415;29;20035;-76
2020/12/12 03:14:51;;;;;;;12.18;6.53;;;;;;;8.35;81.21;98123.38;4908456;29;20107;-76
2020/12/12 03:17:28;;;;;;;6.68;6.05;;;;;;;8.41;81.76;98141.25;4907059;29;20107;-77
2020/12/12 03:19:54;;;;;;;11.30;5.20;;;;;;;8.23;81.78;98120.41;4894977;29;20089;-77
2020/12/12 03:22:30;;;;;;;8.30;4.93;;;;;;;8.26;81.04;98144.31;4886508;29;20060;-77
2020/12/12 03:24:55;;;;;;;7.28;5.03;;;;;;;8.14;82.01;98137.47;4887333;29;20025;-76
2020/12/12 03:27:21;;;;;;;13.75;4.57;;;;;;;8.26;81.00;98166.09;4880909;29;20049;-77
2020/12/12 03:29:46;;;;;;;5.03;3.67;;;;;;;8.08;81.48;98155.03;4897488;29;20031;-77
2020/12/12 03:32:14;;;;;;;3.50;3.25;;;;;;;8.10;82.13;98158.22;4877772;29;20035;-75
2020/12/12 03:34:44;;;;;;;10.30;3.40;;;;;;;8.18;82.05;98171.13;4892781;29;20038;-75
2020/12/12 03:37:14;;;;;;;5.93;4.25;;;;;;;8.07;82.82;98161.56;4880217;29;20052;-76
2020/12/12 03:39:42;;;;;;;5.63;4.95;;;;;;;8.02;82.56;98156.25;4880363;29;20036;-76
2020/12/12 03:42:13;;;;;;;5.07;4.75;;;;;;;8.09;81.64;98172.97;4877835;29;20097;-76
2020/12/12 03:44:39;;;;;;;7.95;5.28;;;;;;;8.06;82.40;98170.88;4883921;29;20036;-76
2020/12/12 03:47:06;;;;;;;6.22;5.10;;;;;;;8.09;82.53;98183.03;4841973;29;20056;-76
2020/12/12 03:49:33;;;;;;;5.47;4.93;;;;;;;8.07;82.30;98186.06;4886549;29;20120;-75
2020/12/12 03:51:59;;;;;;;9.15;5.93;;;;;;;8.13;81.95;98190.31;4887828;29;20128;-76
2020/12/12 03:54:26;;;;;;;5.28;4.80;;;;;;;8.18;82.43;98198.38;4905776;29;20067;-76
2020/12/12 03:56:52;;;;;;;8.13;5.45;;;;;;;8.10;82.51;98182.72;4898543;29;20021;-77
2020/12/12 03:59:18;;;;;;;7.05;5.93;;;;;;;8.11;82.67;98192.53;4902599;29;20496;-74
2020/12/12 04:01:43;;;;;;;6.85;6.18;;;;;;;8.07;82.63;98180.63;4846892;29;20039;-75
2020/12/12 04:04:09;;;;;;;8.93;6.28;;;;;;;8.04;82.93;98187.50;4850021;29;20024;-76
2020/12/12 04:06:34;;;;;;;11.07;6.90;;;;;;;8.05;83.30;98204.63;4895868;29;20021;-74
2020/12/12 04:09:02;;;;;;;11.48;7.18;;;;;;;7.95;83.01;98188.50;4884830;29;20368;-74
2020/12/12 04:11:27;;;;;;;9.77;6.82;;;;;;;7.92;83.58;98194.56;4897005;29;20035;-74
2020/12/12 04:13:53;;;;;;;7.13;6.53;;;;;;;7.91;82.98;98192.94;4881262;29;20029;-73
2020/12/12 04:16:18;;;;;;;11.70;6.80;;;;;;;7.94;83.39;98197.78;4910529;29;20116;-74
2020/12/12 04:18:44;;;;;;;9.10;6.15;;;;;;;8.03;83.05;98213.09;4876773;29;20036;-72
2020/12/12 04:21:09;;;;;;;8.70;6.65;;;;;;;8.07;83.18;98223.38;4861186;29;20037;-73
2020/12/12 04:23:36;;;;;;;6.90;6.20;;;;;;;8.07;84.31;98221.47;4878631;29;20028;-74
2020/12/12 04:26:02;;;;;;;6.57;5.97;;;;;;;8.14;84.20;98227.31;4892590;29;20041;-73
2020/12/12 04:28:29;;;;;;;6.97;6.38;;;;;;;8.15;83.87;98223.47;4892392;29;20483;-73
2020/12/12 04:30:57;;;;;;;5.60;5.22;;;;;;;8.15;83.42;98228.91;4888644;29;20039;-73
2020/12/12 04:33:22;;;;;;;5.03;4.63;;;;;;;8.11;83.63;98230.63;4896210;29;20593;-73
2020/12/12 04:35:48;;;;;;;5.15;4.65;;;;;;;8.06;83.78;98244.38;4867701;29;20361;-74
2020/12/12 04:38:16;;;;;;;5.18;4.68;;;;;;;8.02;84.58;98259.69;4888299;29;20029;-73
2020/12/12 04:40:42;;;;;;;5.45;3.88;;;;;;;8.06;83.27;98266.13;4877540;29;20032;-75
2020/12/12 04:43:09;;;;;;;4.10;3.78;;;;;;;7.94;83.82;98247.56;4892430;29;20029;-74
2020/12/12 04:45:37;;;;;;;3.90;3.58;;;;;;;8.01;83.82;98247.16;4892992;29;20025;-73
2020/12/12 04:48:02;;;;;;;3.80;3.47;;;;;;;8.03;83.77;98262.09;4879788;29;20488;-74
2020/12/12 04:50:31;;;;;;;3.53;3.25;;;;;;;7.99;83.52;98266.53;4887797;29;20052;-74
2020/12/12 04:53:11;;;;;;;2.40;2.20;;;;;;;8.12;83.40;98273.09;4899568;29;20024;-72
2020/12/12 04:55:50;;;;;;;2.97;2.58;;;;;;;8.23;83.31;98286.50;4880994;29;20029;-74
2020/12/12 04:58:20;;;;;;;2.08;1.58;;;;;;;8.36;82.56;98293.84;4887546;29;20025;-73
2020/12/12 05:00:47;;;;;;;1.58;1.48;;;;;;;8.36;83.25;98291.94;4883948;29;20044;-72
2020/12/12 05:03:17;;;;;;;2.05;1.90;;;;;;;8.44;82.35;98309.53;4876942;29;20032;-72
2020/12/12 05:05:46;;;;;;;2.08;1.40;;;;;;;8.44;83.02;98309.53;4885009;29;20044;-74
2020/12/12 05:08:12;;;;;;;4.93;1.30;;;;;;;8.49;82.66;98320.31;4891598;29;20044;-73
2020/12/12 05:10:46;;;;;;;4.68;1.00;;;;;;;8.46;82.84;98307.28;4863712;29;20028;-73
2020/12/12 05:13:30;;;;;;;1.20;0.60;;;;;;;8.47;83.45;98318.97;4891005;29;20029;-72
2020/12/12 05:15:57;;;;;;;1.50;0.90;;;;;;;8.47;83.02;98330.72;4889208;29;20084;-73
2020/12/12 05:18:23;;;;;;;3.35;0.80;;;;;;;8.42;84.02;98322.59;4879935;29;20028;-72
2020/12/12 05:20:51;;;;;;;0.55;0.55;;;;;;;8.34;83.03;98326.03;4866072;29;20036;-72
2020/12/12 05:23:21;;;;;;;0.63;0.63;;;;;;;8.34;83.35;98332.28;4867603;29;20107;-74
2020/12/12 05:25:48;;;;;;;3.15;0.50;;;;;;;8.32;82.62;98336.41;4770828;28;3698702;-73
2020/12/12 05:28:15;;;;;;;1.50;0.47;;;;;;;8.30;83.41;98347.59;4870321;29;20047;-73
2020/12/12 05:30:42;;;;;;;2.30;0.40;;;;;;;8.27;82.09;98337.31;4879423;29;20047;-74
2020/12/12 05:33:10;;;;;;;2.28;0.75;;;;;;;8.30;82.39;98346.81;4880234;29;20112;-74
2020/12/12 05:35:41;;;;;;;0.20;0.20;;;;;;;8.38;81.85;98359.72;4890519;29;20031;-74
2020/12/12 05:38:11;;;;;;;1.25;0.30;;;;;;;8.32;81.83;98345.41;4891992;29;20017;-74
2020/12/12 05:40:38;;;;;;;1.20;0.20;;;;;;;8.30;82.06;98352.25;4888656;29;20060;-73
2020/12/12 05:43:15;;;;;;;0.45;0.38;;;;;;;8.38;81.28;98376.03;4897976;29;20099;-75
2020/12/12 05:45:41;;;;;;;0.60;0.30;;;;;;;8.34;81.11;98381.31;4899409;29;20032;-74
2020/12/12 05:51:29;;;;;;;0.20;0.20;;;;;;;8.32;81.62;98379.97;4846216;29;20034;-75
2020/12/12 05:54:19;;;;;;;2.00;0.20;;;;;;;8.27;81.16;98389.06;4876158;29;20041;-74
2020/12/12 05:56:45;;;;;;;0.63;0.25;;;;;;;8.29;81.27;98383.31;4878454;29;20023;-74
2020/12/12 05:59:15;;;;;;;9.23;0.57;;;;;;;8.30;81.34;98390.38;4891523;29;20115;-74
2020/12/12 06:01:54;;;;;;;1.80;0.30;;;;;;;8.26;80.72;98384.72;4888913;29;20032;-75
2020/12/12 06:04:31;;;;;;;1.48;0.20;;;;;;;8.29;81.52;98399.66;4888304;29;20024;-73
2020/12/12 06:07:04;;;;;;;0.68;0.20;;;;;;;8.23;80.98;98403.56;4881397;29;20035;-74
2020/12/12 06:09:36;;;;;;;0.70;0.10;;;;;;;8.28;81.46;98408.91;4865287;29;20031;-74
2020/12/12 06:12:03;;;;;;;0.08;0.08;;;;;;;8.29;81.21;98426.88;4877229;29;20025;-73
2020/12/12 06:14:35;;;;;;;0.40;0.20;;;;;;;8.24;81.92;98418.81;4883277;29;20024;-74
2020/12/12 06:17:17;;;;;;;0.40;0.30;;;;;;;8.20;82.38;98424.84;4886584;29;20025;-74
2020/12/12 06:19:57;;;;;;;0.70;0.30;;;;;;;8.06;81.27;98413.13;4879192;29;20450;-75
2020/12/12 06:22:24;;;;;;;2.20;0.68;;;;;;;7.95;81.43;98414.41;4881038;29;20040;-75
2020/12/12 06:24:59;;;;;;;2.78;0.45;;;;;;;7.86;82.18;98431.41;4864634;29;20032;-73
2020/12/12 06:27:32;;;;;;;0.85;0.47;;;;;;;7.77;81.37;98429.63;4884316;29;20118;-75
2020/12/12 06:30:03;;;;;;;0.98;0.15;;;;;;;7.67;81.77;98445.03;4892453;29;20115;-74
2020/12/12 06:32:29;;;;;;;2.92;0.82;;;;;;;7.62;81.76;98444.28;4888097;29;20029;-73
2020/12/12 06:34:55;;;;;;;1.20;0.28;;;;;;;7.59;81.18;98453.84;4884703;29;20051;-74
2020/12/12 06:37:27;;;;;;;2.17;0.35;;;;;;;7.53;81.49;98454.22;4900103;29;20032;-75
2020/12/12 06:39:56;;;;;;;3.08;0.30;;;;;;;7.44;81.75;98463.03;4874999;29;20036;-74
2020/12/12 06:42:33;;;;;;;2.30;0.25;;;;;;;7.45;81.99;98472.81;4892671;29;20025;-74
2020/12/12 06:45:02;;;;;;;0.98;0.20;;;;;;;7.43;82.09;98477.75;4890537;29;20178;-73
2020/12/12 06:47:48;;;;;;;1.13;0.25;;;;;;;7.36;81.34;98482.75;4882600;29;20081;-73
2020/12/12 06:50:16;;;;;;;2.95;0.30;;;;;;;7.41;82.14;98484.59;4878603;29;20043;-73
2020/12/12 06:52:45;;;;;;;0.85;0.30;;;;;;;7.44;81.36;98492.94;4880631;29;20029;-72
2020/12/12 06:55:12;;;;;;;2.45;0.85;;;;;;;7.39;81.08;98490.31;4862454;29;20025;-73
2020/12/12 06:57:42;;;;;;;2.45;0.35;;;;;;;7.41;81.09;98501.69;4864304;29;20056;-73
2020/12/12 07:00:20;;;;;;;3.33;0.70;;;;;;;7.55;81.57;98495.53;4889508;29;20384;-74
2020/12/12 07:03:05;;;;;;;2.70;0.60;;;;;;;7.59;81.70;98496.56;4879197;29;20108;-73
2020/12/12 07:05:33;;;;;;;1.02;0.98;;;;;;;7.69;79.95;98516.28;4886584;29;20036;-72
2020/12/12 07:08:07;;;;;;;4.28;0.80;;;;;;;7.69;80.24;98510.03;4882343;29;20120;-74
2020/12/12 07:10:33;;;;;;;6.15;0.80;;;;;;;7.75;79.64;98522.44;4885648;29;20031;-73
2020/12/12 07:13:00;;;;;;;2.65;0.40;;;;;;;7.78;79.58;98521.88;4878709;29;20072;-73
2020/12/12 07:15:31;;;;;;;3.03;0.68;;;;;;;7.87;79.37;98522.03;4884511;29;20039;-73
2020/12/12 07:18:07;;;;;;;0.98;0.68;;;;;;;7.88;78.82;98541.88;4890299;29;20460;-74
2020/12/12 07:20:37;;;;;;;4.40;0.77;;;;;;;7.86;79.53;98542.97;4877679;29;20042;-73
2020/12/12 07:23:07;;;;;;;11.57;1.17;;;;;;;7.81;78.95;98545.78;4883828;29;20488;-74
2020/12/12 07:25:34;;;;;;;4.00;0.82;;;;;;;7.84;79.25;98553.34;4873444;29;20103;-73
2020/12/12 07:28:01;;;;;;;3.85;0.95;;;;;;;7.84;78.38;98541.63;4874788;29;20428;-74
2020/12/12 07:30:27;;;;;;;3.08;0.63;;;;;;;7.82;78.69;98544.66;4882768;29;20037;-74
2020/12/12 07:32:53;;;;;;;2.67;1.13;;;;;;;7.78;78.08;98535.50;4881205;29;20033;-75
2020/12/12 07:35:21;;;;;;;4.78;0.85;;;;;;;7.71;78.41;98548.66;4889950;29;20033;-75
2020/12/12 07:37:51;;;;;;;5.40;1.23;;;;;;;7.63;78.31;98546.56;4886940;29;20073;-74
2020/12/12 07:40:19;;;;;;;6.32;1.67;;;;;;;7.67;78.50;98559.28;4877139;29;20060;-76
2020/12/12 07:42:47;;;;;;;2.50;0.98;;;;;;;7.62;78.08;98555.81;4887075;29;20024;-75
2020/12/12 07:48:14;;;;;;;2.13;0.80;;;;;;;7.82;78.74;98587.41;4893661;29;20111;-77
2020/12/12 07:50:53;;;;;;;4.45;1.08;;;;;;;7.73;78.57;98589.97;4894006;29;20017;-74
2020/12/12 07:53:31;;;;;;;;;;;;;;;;;;;;;
2020/12/12 07:55:59;;;;;;;0.63;0.60;;;;;;;7.77;77.96;98607.31;4892622;29;20112;-76
2020/12/12 07:58:28;;;;;;;4.50;0.93;;;;;;;7.69;77.51;98594.38;4880939;29;20032;-76
2020/12/12 08:01:10;;;;;;;;;;;;;;;;;;;;;
2020/12/12 08:03:46;;;;;;;2.00;1.15;;;;;;;7.66;77.32;98600.38;4899285;29;20115;-75
2020/12/12 08:06:11;;;;;;;6.38;1.05;;;;;;;7.72;77.21;98620.97;4886489;29;20076;-77
2020/12/12 08:08:46;;;;;;;5.32;0.75;;;;;;;7.74;76.65;98629.69;4897748;29;20066;-74
2020/12/12 08:11:15;;;;;;;5.75;1.00;;;;;;;7.74;77.39;98623.41;4882730;29;20120;-73
2020/12/12 08:13:41;;;;;;;8.15;1.10;;;;;;;7.74;77.06;98648.72;4856166;29;20040;-73
2020/12/12 08:16:33;;;;;;;3.28;1.77;;;;;;;7.77;77.31;98660.91;4896294;29;20028;-73
2020/12/12 08:19:06;;;;;;;8.13;1.08;;;;;;;7.59;76.61;98649.69;4875949;29;21948;-73
2020/12/12 08:21:32;;;;;;;7.75;0.73;;;;;;;7.60;77.34;98667.66;4878688;29;20052;-73
2020/12/12 08:23:58;;;;;;;4.35;0.80;;;;;;;7.54;78.03;98671.53;4882483;29;20040;-74
2020/12/12 08:26:27;;;;;;;5.70;1.10;;;;;;;7.40;77.51;98665.94;4884820;29;20057;-73
2020/12/12 08:28:53;;;;;;;2.95;0.65;;;;;;;7.35;78.00;98682.34;4895631;29;20427;-74
2020/12/12 08:31:23;;;;;;;4.05;1.23;;;;;;;7.37;78.33;98691.00;4896612;29;20039;-74
2020/12/12 08:33:56;;;;;;;5.70;0.80;;;;;;;7.34;77.57;98697.84;4896150;29;20037;-73
2020/12/12 08:36:29;;;;;;;4.97;1.00;;;;;;;7.28;77.58;98698.19;4889713;29;21129;-73
2020/12/12 08:38:57;;;;;;;11.63;1.13;;;;;;;7.28;78.07;98719.94;4891968;29;20052;-75
2020/12/12 08:41:48;;;;;;;6.78;1.30;;;;;;;7.23;78.28;98722.69;4886347;29;20024;-74
2020/12/12 08:44:24;;;;;;;13.90;1.00;;;;;;;7.21;78.60;98719.44;4863854;29;20048;-73
2020/12/12 08:46:53;;;;;;;9.75;1.90;;;;;;;7.24;78.49;98718.88;4893115;29;20084;-74
2020/12/12 08:49:19;;;;;;;3.65;0.75;;;;;;;7.25;79.17;98731.38;4883695;29;20052;-73
2020/12/12 08:51:51;;;;;;;6.32;1.08;;;;;;;7.37;77.96;98731.78;4893684;29;20367;-75
2020/12/12 08:54:23;;;;;;;12.25;0.95;;;;;;;7.36;77.53;98732.91;4879763;29;20235;-75
2020/12/12 08:56:49;;;;;;;5.35;1.55;;;;;;;7.45;78.26;98736.63;4895051;29;20047;-73
2020/12/12 08:59:19;;;;;;;2.88;1.40;;;;;;;7.49;77.34;98745.84;4866571;29;20029;-73
2020/12/12 09:01:53;;;;;;;4.45;1.75;;;;;;;7.55;77.54;98759.38;4863651;29;20487;-73
2020/12/12 09:04:37;;;;;;;3.88;1.00;;;;;;;7.58;76.56;98756.06;4890895;29;20033;-76
2020/12/12 09:07:12;;;;;;;;;;;;;;;;;;;;;
2020/12/12 09:09:43;;;;;;;4.97;1.10;;;;;;;7.62;76.22;98762.56;4892635;29;20043;-77
2020/12/12 09:12:15;;;;;;;2.78;0.77;;;;;;;7.59;76.94;98776.75;4874941;29;20052;-79
2020/12/12 09:18:57;;;;;;;1.33;0.70;;;;;;;7.60;76.17;98781.09;4793575;29;20050;-79
2020/12/12 09:21:51;;;;;;;3.70;1.02;;;;;;;7.67;75.98;98781.59;4785752;29;20449;-74
2020/12/12 09:24:22;;;;;;;7.93;0.80;;;;;;;7.80;76.75;98786.34;4829087;29;20097;-75
2020/12/12 09:26:50;;;;;;;6.03;1.02;;;;;;;7.80;76.40;98764.56;4828884;29;20069;-77
2020/12/12 09:29:18;;;;;;;5.10;0.70;;;;;;;7.96;75.97;98778.03;4843817;29;20041;-77
2020/12/12 09:31:49;;;;;;;3.65;0.95;;;;;;;8.00;76.08;98773.59;4862984;29;20082;-78
2020/12/12 09:34:18;;;;;;;1.55;0.60;;;;;;;8.23;76.71;98798.41;4861677;29;20040;-77
2020/12/12 09:37:39;;;;;;;;;;;;;;;;;;;;;
2020/12/12 09:40:10;;;;;;;2.40;0.68;;;;;;;10.18;74.77;98816.44;4873242;29;20045;-76
2020/12/12 09:42:35;;;;;;;2.80;0.43;;;;;;;11.28;72.43;98812.75;4872336;29;20029;-79
2020/12/12 09:45:04;;;;;;;1.85;0.40;;;;;;;12.36;70.72;98825.66;4876996;29;20092;-80
2020/12/12 09:47:29;;;;;;;3.55;0.68;;;;;;;13.24;67.06;98826.63;4875464;29;20029;-79
2020/12/12 09:49:55;;;;;;;4.82;0.73;;;;;;;13.63;59.58;98827.63;4877243;29;20029;-78
2020/12/12 09:52:22;;;;;;;1.95;0.43;;;;;;;13.94;60.15;98848.56;4837192;29;20041;-79
2020/12/12 09:54:58;;;;;;;4.43;1.13;;;;;;;14.11;56.44;98848.50;4861281;29;20085;-77
2020/12/12 09:57:26;;;;;;;1.63;0.88;;;;;;;13.79;54.64;98858.94;4857785;29;20025;-77
2020/12/12 09:59:52;;;;;;;3.42;0.43;;;;;;;12.98;55.62;98868.59;4867899;29;20056;-78
2020/12/12 10:02:22;;;;;;;2.60;0.68;;;;;;;12.30;57.75;98871.59;4864675;29;20112;-78
2020/12/12 10:04:55;;;;;;;3.60;0.60;;;;;;;12.48;57.57;98874.41;4872489;29;20034;-80
2020/12/12 10:07:21;;;;;;;1.35;0.30;;;;;;;12.90;58.36;98869.38;4877391;29;20089;-78
2020/12/12 10:09:54;;;;;;;1.58;0.60;;;;;;;13.35;57.31;98871.88;4859202;29;20061;-79
2020/12/12 10:12:27;;;;;;;0.68;0.40;;;;;;;13.49;55.53;98855.25;4874829;29;20029;-80
2020/12/12 10:15:11;;;;;;;;;;;;;;;;;;;;;
2020/12/12 10:18:08;;;;;;;3.58;0.70;;;;;;;14.16;53.98;98891.50;4873103;29;20548;-79
2020/12/12 10:20:35;;;;;;;1.02;0.45;;;;;;;14.51;51.87;98877.63;4883498;29;20064;-78
2020/12/12 10:23:13;;;;;;;1.95;0.63;;;;;;;15.09;51.27;98894.53;4852481;29;20024;-79
2020/12/12 10:25:39;;;;;;;6.00;1.05;;;;;;;15.51;50.31;98893.78;4885382;29;20071;-77
2020/12/12 10:28:05;;;;;;;9.73;0.90;;;;;;;16.05;47.71;98893.00;4869222;29;20158;-79
2020/12/12 10:30:40;;;;;;;3.08;0.63;;;;;;;16.41;46.93;98899.72;4883966;29;20039;-78
2020/12/12 10:33:08;;;;;;;0.95;0.70;;;;;;;16.60;45.94;98888.13;4892326;29;20070;-79
2020/12/12 10:35:35;;;;;;;1.48;0.52;;;;;;;16.91;45.81;98898.66;4885173;29;20036;-79
2020/12/12 10:38:10;;;;;;;3.10;0.80;;;;;;;17.26;44.86;98920.25;4888609;29;20067;-78
2020/12/12 10:40:41;;;;;;;1.15;0.50;;;;;;;17.45;44.03;98916.06;4895611;29;20032;-78
2020/12/12 10:43:08;;;;;;;1.33;0.80;;;;;;;17.43;44.24;98926.66;4903784;29;20028;-78
2020/12/12 10:45:43;;;;;;;1.40;0.68;;;;;;;16.97;44.93;98924.06;4894026;29;20031;-78
2020/12/12 10:48:09;;;;;;;4.97;0.63;;;;;;;16.37;44.90;98926.41;4898306;29;20093;-78
2020/12/12 10:50:34;;;;;;;2.42;0.45;;;;;;;15.69;46.20;98922.78;4887826;29;20041;-79
2020/12/12 10:53:00;;;;;;;5.22;0.65;;;;;;;15.14;47.04;98932.06;4901736;29;20147;-78
2020/12/12 10:55:35;;;;;;;2.80;0.85;;;;;;;14.83;48.69;98925.78;4881686;29;20032;-79
2020/12/12 10:58:04;;;;;;;1.50;0.47;;;;;;;14.55;48.59;98941.06;4877397;29;20024;-79
2020/12/12 11:00:39;;;;;;;6.53;1.17;;;;;;;14.29;49.29;98942.75;4874450;29;20032;-79
2020/12/12 11:03:06;;;;;;;2.20;0.60;;;;;;;13.89;50.23;98922.94;4884460;29;20051;-79
2020/12/12 11:05:32;;;;;;;1.83;0.70;;;;;;;13.87;50.36;98936.19;4875646;29;20040;-79
2020/12/12 11:07:57;;;;;;;3.83;0.73;;;;;;;13.47;51.19;98936.34;4875833;29;20037;-80
2020/12/12 11:10:34;;;;;;;4.85;0.60;;;;;;;13.12;52.07;98956.25;4872041;29;20024;-80
2020/12/12 11:12:59;;;;;;;5.35;0.85;;;;;;;12.85;53.24;98935.34;4900148;29;20097;-78
2020/12/12 11:15:25;;;;;;;10.68;1.45;;;;;;;12.86;52.98;98958.91;4871750;29;20036;-80
2020/12/12 11:17:50;;;;;;;3.30;0.70;;;;;;;12.91;53.40;98945.06;4897676;29;20093;-79
2020/12/12 11:20:19;;;;;;;2.22;0.50;;;;;;;13.32;53.64;98943.88;4901368;29;20068;-80
2020/12/12 11:22:45;;;;;;;2.28;0.60;;;;;;;13.83;51.60;98957.19;4886626;29;20077;-78
2020/12/12 11:25:13;;;;;;;4.85;0.70;;;;;;;14.38;51.05;98955.66;4904892;29;20037;-80
2020/12/12 11:27:39;;;;;;;1.50;1.08;;;;;;;14.92;49.39;98963.44;4887315;29;20052;-80
2020/12/12 11:30:08;;;;;;;2.97;0.65;;;;;;;15.31;47.45;98966.97;4880339;29;20020;-78
2020/12/12 11:32:34;;;;;;;7.72;1.05;;;;;;;15.35;47.12;98970.69;4874516;29;20036;-80
2020/12/12 11:48:35;;;;;;;2.08;1.10;;;;;;;14.00;51.20;98992.09;4874454;29;20025;-83
2020/12/12 11:51:04;;;;;;;2.47;0.80;;;;;;;14.78;50.09;98980.19;4896184;29;20540;-82
2020/12/12 11:53:29;;;;;;;2.58;0.60;;;;;;;15.77;46.73;99002.97;4879132;29;20047;-80
2020/12/12 11:55:55;;;;;;;3.30;0.73;;;;;;;16.50;45.31;98997.00;4894074;29;20029;-81
2020/12/12 11:58:20;;;;;;;2.20;1.00;;;;;;;17.41;44.73;99001.63;4871675;29;20024;-81
2020/12/12 12:00:46;;;;;;;2.55;0.75;;;;;;;18.41;42.91;99018.78;4868852;29;20027;-81
2020/12/12 12:03:14;;;;;;;2.47;1.17;;;;;;;19.12;40.76;99014.34;4880201;29;20036;-81
2020/12/12 12:05:59;;;;;;;4.07;0.75;;;;;;;19.76;39.98;99021.78;4885643;29;20016;-81
2020/12/12 12:11:36;;;;;;;4.82;0.70;;;;;;;19.73;37.74;99014.16;4889955;29;20063;-81
2020/12/12 12:14:07;;;;;;;4.00;1.17;;;;;;;19.78;36.51;99005.56;4882356;29;21633;-79
2020/12/12 12:16:36;;;;;;;3.83;0.95;;;;;;;19.62;36.53;99017.50;4878509;29;20468;-83
2020/12/12 12:19:19;;;;;;;3.40;1.30;;;;;;;19.37;36.19;99014.16;4893123;29;20471;-82
2020/12/12 12:21:57;;;;;;;7.03;0.80;;;;;;;19.58;37.58;99022.19;4882223;29;20029;-82
2020/12/12 12:24:33;;;;;;;;;;;;;;;;;;;;;
2020/12/12 12:26:58;;;;;;;6.85;1.08;;;;;;;19.93;34.93;99024.19;4900629;29;20120;-82